Time;durP1;ratioP1;P1;durP2;ratioP2;P2;SDS_P1;SDS_P2;PMS_P1;PMS_P2;Temp;Humidity;BMP_temperature;BMP_pressure;BME280_temperature;BME280_humidity;BME280_pressure;Samples;Min_cycle;Max_cycle;Signal;HPM_P1;HPM_P2
2021/08/03 00:01:47;;;;;;;6.27;5.67;;;13.60;99.90;;;;;;5093973;28;20457;-73
2021/08/03 00:04:15;;;;;;;8.63;6.37;;;13.70;99.90;;;;;;5088378;28;20784;-73
2021/08/03 00:06:58;;;;;;;6.50;5.80;;;13.60;99.90;;;;;;5090796;28;20446;-72
2021/08/03 00:09:29;;;;;;;7.23;5.87;;;13.60;99.90;;;;;;5075846;28;20801;-72
2021/08/03 00:11:56;;;;;;;7.90;5.60;;;13.70;99.90;;;;;;5092317;28;20834;-73
2021/08/03 00:14:24;;;;;;;8.93;5.57;;;13.70;99.90;;;;;;5093732;28;20996;-73
2021/08/03 00:16:53;;;;;;;7.47;6.40;;;13.70;99.90;;;;;;5075172;28;20451;-73
2021/08/03 00:19:24;;;;;;;7.70;6.30;;;13.70;99.90;;;;;;5074276;28;20458;-73
2021/08/03 00:21:52;;;;;;;6.70;5.60;;;13.70;99.90;;;;;;5075576;28;20456;-73
2021/08/03 00:24:23;;;;;;;6.73;6.03;;;13.70;99.90;;;;;;5080236;28;20437;-73
2021/08/03 00:26:51;;;;;;;7.20;6.27;;;13.70;99.90;;;;;;5088236;28;20456;-73
2021/08/03 00:29:18;;;;;;;6.63;6.03;;;13.70;99.90;;;;;;5091017;28;20447;-74
2021/08/03 00:31:45;;;;;;;6.77;6.10;;;13.70;99.90;;;;;;5092032;28;20821;-73
2021/08/03 00:34:13;;;;;;;6.57;5.97;;;13.80;99.90;;;;;;5091835;28;20994;-73
2021/08/03 00:36:42;;;;;;;8.37;5.70;;;13.80;99.90;;;;;;5093330;28;20436;-73
2021/08/03 00:39:09;;;;;;;6.47;5.87;;;13.80;99.90;;;;;;5094178;28;20445;-74
2021/08/03 00:41:41;;;;;;;6.73;6.00;;;13.90;99.90;;;;;;5102403;28;20471;-73
2021/08/03 00:44:08;;;;;;;6.93;6.33;;;13.90;99.90;;;;;;5115701;28;20448;-74
2021/08/03 00:46:35;;;;;;;8.60;6.33;;;13.90;99.90;;;;;;5113135;28;20916;-73
2021/08/03 00:49:02;;;;;;;6.77;6.17;;;14.00;99.90;;;;;;5091466;28;20428;-73
2021/08/03 00:51:31;;;;;;;6.77;6.13;;;14.00;99.90;;;;;;5112546;28;20455;-72
2021/08/03 00:53:58;;;;;;;7.60;6.80;;;14.00;99.90;;;;;;5112854;28;20490;-73
2021/08/03 00:56:24;;;;;;;7.00;6.27;;;14.00;99.90;;;;;;5112853;28;20964;-74
2021/08/03 00:58:51;;;;;;;6.90;6.17;;;14.10;99.90;;;;;;5113319;28;20985;-72
2021/08/03 01:01:18;;;;;;;7.77;6.90;;;14.10;99.90;;;;;;5115339;28;20436;-73
2021/08/03 01:03:45;;;;;;;7.70;6.90;;;14.10;99.90;;;;;;5115261;28;20453;-73
2021/08/03 01:06:18;;;;;;;7.60;6.90;;;14.10;99.90;;;;;;5115591;28;20928;-74
2021/08/03 01:08:55;;;;;;;8.30;7.20;;;14.10;99.90;;;;;;5094476;28;20931;-73
2021/08/03 01:11:29;;;;;;;10.10;8.07;;;14.20;99.90;;;;;;5109075;28;20436;-74
2021/08/03 01:14:03;;;;;;;8.03;7.27;;;14.20;99.90;;;;;;5094735;28;20489;-73
2021/08/03 01:16:35;;;;;;;9.50;6.90;;;14.20;99.90;;;;;;5112510;28;20466;-74
2021/08/03 01:19:18;;;;;;;10.27;7.60;;;14.20;99.90;;;;;;5112792;28;20460;-72
2021/08/03 01:21:49;;;;;;;9.17;8.27;;;14.20;99.90;;;;;;5095425;28;20468;-73
2021/08/03 01:24:33;;;;;;;9.07;7.87;;;14.20;99.90;;;;;;5096944;28;20878;-74
2021/08/03 01:27:20;;;;;;;8.50;7.70;;;14.20;99.90;;;;;;5114781;28;20436;-73
2021/08/03 01:29:50;;;;;;;8.70;7.37;;;14.20;99.90;;;;;;5099149;28;20517;-72
2021/08/03 01:32:23;;;;;;;8.20;7.17;;;14.20;99.90;;;;;;5090034;28;20571;-72
2021/08/03 01:34:51;;;;;;;8.33;7.53;;;14.30;99.90;;;;;;5092189;28;20477;-74
2021/08/03 01:37:20;;;;;;;8.33;7.57;;;14.30;99.90;;;;;;5112379;28;20436;-73
2021/08/03 01:39:56;;;;;;;7.30;6.47;;;14.30;99.90;;;;;;5094331;28;20436;-73
2021/08/03 01:42:25;;;;;;;8.30;7.50;;;14.30;99.90;;;;;;5112180;28;20475;-72
2021/08/03 01:44:57;;;;;;;7.57;6.80;;;14.30;99.90;;;;;;5095654;28;20456;-73
2021/08/03 01:47:26;;;;;;;8.53;6.57;;;14.30;99.90;;;;;;5114475;28;20440;-73
2021/08/03 01:49:55;;;;;;;9.97;7.03;;;14.30;99.90;;;;;;5114341;28;20442;-72
2021/08/03 01:52:22;;;;;;;7.50;6.80;;;14.30;99.90;;;;;;5112245;28;20458;-73
2021/08/03 01:54:50;;;;;;;7.23;6.53;;;14.30;99.90;;;;;;5107641;28;20468;-73
2021/08/03 01:57:18;;;;;;;7.70;7.00;;;14.30;99.90;;;;;;5092771;28;20445;-73
2021/08/03 01:59:46;;;;;;;7.20;6.57;;;14.30;99.90;;;;;;5111833;28;20441;-72
2021/08/03 02:02:17;;;;;;;10.43;6.80;;;14.30;99.90;;;;;;5111830;28;20468;-73
2021/08/03 02:04:47;;;;;;;9.20;7.93;;;14.30;99.90;;;;;;5093677;28;20444;-73
2021/08/03 02:07:16;;;;;;;11.00;7.97;;;14.30;99.90;;;;;;5113953;28;20447;-73
2021/08/03 02:09:44;;;;;;;11.53;9.20;;;14.30;99.90;;;;;;5114566;28;20928;-73
2021/08/03 02:12:11;;;;;;;9.33;7.77;;;14.30;99.90;;;;;;5114062;28;20459;-74
2021/08/03 02:14:44;;;;;;;9.33;8.43;;;14.30;99.90;;;;;;5111673;28;21000;-73
2021/08/03 02:17:17;;;;;;;10.47;9.53;;;14.20;99.90;;;;;;5090586;28;20430;-73
2021/08/03 02:19:44;;;;;;;9.83;8.83;;;14.20;99.90;;;;;;5092554;28;20443;-73
2021/08/03 02:22:11;;;;;;;9.27;8.40;;;14.20;99.90;;;;;;5093361;28;20462;-72
2021/08/03 02:24:39;;;;;;;9.40;8.50;;;14.20;99.90;;;;;;5093546;28;20463;-73
2021/08/03 02:27:06;;;;;;;9.40;8.40;;;14.20;99.90;;;;;;5111850;28;20457;-72
2021/08/03 02:29:34;;;;;;;8.00;7.20;;;14.20;99.90;;;;;;5113810;28;20477;-73
2021/08/03 02:32:07;;;;;;;8.33;7.40;;;14.20;99.90;;;;;;5095556;28;20548;-73
2021/08/03 02:34:39;;;;;;;8.50;7.60;;;14.20;99.90;;;;;;5114569;28;20481;-73
2021/08/03 02:37:12;;;;;;;9.57;7.80;;;14.20;99.90;;;;;;5110350;28;20444;-73
2021/08/03 02:39:40;;;;;;;8.47;7.37;;;14.20;99.90;;;;;;5073721;28;20941;-72
2021/08/03 02:42:09;;;;;;;11.03;8.50;;;14.20;99.90;;;;;;5110555;28;20469;-72
2021/08/03 02:44:39;;;;;;;9.70;7.97;;;14.20;99.90;;;;;;5114223;28;20451;-73
2021/08/03 02:47:17;;;;;;;9.70;8.40;;;14.20;99.90;;;;;;5115856;28;20445;-73
2021/08/03 02:49:49;;;;;;;8.40;7.70;;;14.10;99.90;;;;;;5116434;28;20477;-72
2021/08/03 02:52:19;;;;;;;8.40;7.60;;;14.10;99.90;;;;;;5117674;28;20464;-72
2021/08/03 02:54:50;;;;;;;10.60;7.70;;;14.10;99.90;;;;;;5117781;28;20981;-74
2021/08/03 02:57:19;;;;;;;8.77;7.97;;;14.10;99.90;;;;;;5117587;28;20448;-73
2021/08/03 02:59:53;;;;;;;9.40;8.50;;;14.10;99.90;;;;;;5094689;28;20441;-74
2021/08/03 03:02:21;;;;;;;8.60;7.70;;;14.10;99.90;;;;;;5112241;28;20456;-74
2021/08/03 03:04:56;;;;;;;10.00;8.60;;;14.10;99.90;;;;;;5115238;28;20450;-74
2021/08/03 03:07:28;;;;;;;9.70;8.80;;;14.10;99.90;;;;;;5114971;28;20815;-73
2021/08/03 03:09:58;;;;;;;8.13;7.30;;;14.10;99.90;;;;;;5096956;28;20471;-73
2021/08/03 03:12:27;;;;;;;11.00;9.40;;;14.10;99.90;;;;;;5116394;28;20486;-73
2021/08/03 03:14:58;;;;;;;9.60;8.70;;;14.10;99.90;;;;;;5099246;28;20484;-73
2021/08/03 03:17:30;;;;;;;9.97;8.00;;;14.10;99.90;;;;;;5117459;28;20437;-73
2021/08/03 03:20:00;;;;;;;8.73;7.90;;;14.10;99.90;;;;;;5116850;28;20440;-74
2021/08/03 03:22:29;;;;;;;8.10;7.27;;;14.00;99.90;;;;;;5110995;28;20446;-72
2021/08/03 03:24:58;;;;;;;8.97;7.80;;;14.10;99.90;;;;;;5112630;28;20435;-72
2021/08/03 03:27:26;;;;;;;10.60;9.20;;;14.10;99.90;;;;;;5115136;28;20450;-73
2021/08/03 03:29:54;;;;;;;9.50;8.30;;;14.10;99.90;;;;;;5114641;28;20451;-73
2021/08/03 03:32:22;;;;;;;9.43;8.50;;;14.10;99.90;;;;;;5114724;28;20458;-72
2021/08/03 03:34:50;;;;;;;9.83;7.90;;;14.10;99.90;;;;;;5116085;28;20477;-74
2021/08/03 03:37:18;;;;;;;8.93;8.03;;;14.10;99.90;;;;;;5116990;28;20445;-74
2021/08/03 03:39:46;;;;;;;8.00;7.20;;;14.10;99.90;;;;;;5116999;28;20440;-73
2021/08/03 03:42:13;;;;;;;8.10;7.30;;;14.10;99.90;;;;;;5115939;28;20837;-72
2021/08/03 03:44:41;;;;;;;8.47;7.77;;;14.10;99.90;;;;;;5110366;28;20433;-73
2021/08/03 03:47:17;;;;;;;7.93;7.13;;;14.10;99.90;;;;;;5112355;28;20449;-72
2021/08/03 03:49:47;;;;;;;9.10;8.23;;;14.10;99.90;;;;;;5114524;28;20944;-73
2021/08/03 03:52:20;;;;;;;11.80;8.50;;;14.10;99.90;;;;;;5096825;28;20581;-73
2021/08/03 03:54:50;;;;;;;8.63;7.70;;;14.10;99.90;;;;;;5079422;28;20477;-73
2021/08/03 03:57:19;;;;;;;11.63;8.30;;;14.00;99.90;;;;;;5115936;28;20482;-73
2021/08/03 03:59:49;;;;;;;8.83;7.93;;;14.00;99.90;;;;;;5116368;28;20439;-73
2021/08/03 04:02:21;;;;;;;9.53;8.53;;;14.00;99.90;;;;;;5116742;28;20459;-73
2021/08/03 04:04:49;;;;;;;8.90;8.10;;;14.00;99.90;;;;;;5114317;28;20438;-73
2021/08/03 04:07:16;;;;;;;10.27;8.30;;;14.00;99.90;;;;;;5110104;28;20421;-72
2021/08/03 04:09:44;;;;;;;9.17;8.37;;;14.00;99.90;;;;;;5112824;28;20787;-73
2021/08/03 04:12:12;;;;;;;8.43;7.63;;;14.00;99.90;;;;;;5113657;28;20466;-73
2021/08/03 04:14:41;;;;;;;9.43;8.53;;;14.10;99.90;;;;;;5113950;28;20981;-74
2021/08/03 04:17:09;;;;;;;11.00;9.33;;;14.10;99.90;;;;;;5113984;28;20433;-74
2021/08/03 04:19:36;;;;;;;10.77;8.23;;;14.10;99.90;;;;;;5098244;28;20436;-72
2021/08/03 04:22:04;;;;;;;9.67;8.40;;;14.10;99.90;;;;;;5116092;28;20817;-74
2021/08/03 04:24:31;;;;;;;9.83;8.53;;;14.10;99.90;;;;;;5098267;28;20794;-72
2021/08/03 04:26:59;;;;;;;9.83;8.93;;;14.10;99.90;;;;;;5113886;28;20797;-72
2021/08/03 04:29:26;;;;;;;8.83;8.03;;;14.10;99.90;;;;;;5109755;28;20433;-73
2021/08/03 04:31:53;;;;;;;9.47;8.47;;;14.10;99.90;;;;;;5112884;28;20455;-73
2021/08/03 04:34:20;;;;;;;9.40;8.50;;;14.10;99.90;;;;;;5113609;28;20808;-72
2021/08/03 04:36:46;;;;;;;9.43;8.43;;;14.10;99.90;;;;;;5113687;28;20438;-73
2021/08/03 04:39:13;;;;;;;9.23;8.33;;;14.10;99.90;;;;;;5113537;28;20531;-73
2021/08/03 04:41:40;;;;;;;10.13;9.00;;;14.10;99.90;;;;;;5115670;28;20469;-73
2021/08/03 04:44:09;;;;;;;9.07;8.13;;;14.20;99.90;;;;;;5097915;28;20435;-74
2021/08/03 04:46:36;;;;;;;9.77;8.77;;;14.20;99.90;;;;;;5097964;28;20439;-73
2021/08/03 04:49:03;;;;;;;9.53;8.53;;;14.20;99.90;;;;;;5113264;28;20806;-73
2021/08/03 04:51:30;;;;;;;10.50;8.87;;;14.20;99.90;;;;;;5091246;28;20448;-74
2021/08/03 04:53:57;;;;;;;9.13;8.30;;;14.20;99.90;;;;;;5112266;28;20434;-72
2021/08/03 04:56:24;;;;;;;8.77;7.87;;;14.20;99.90;;;;;;5113297;28;20444;-73
2021/08/03 04:58:51;;;;;;;11.57;8.70;;;14.20;99.90;;;;;;5113540;28;20433;-73
2021/08/03 05:01:19;;;;;;;9.60;8.63;;;14.20;99.90;;;;;;5113288;28;20448;-73
2021/08/03 05:03:46;;;;;;;8.73;7.83;;;14.20;99.90;;;;;;5112171;28;20955;-73
2021/08/03 05:06:13;;;;;;;8.53;7.67;;;14.30;99.90;;;;;;5107956;28;20554;-74
2021/08/03 05:08:40;;;;;;;9.83;8.80;;;14.30;99.90;;;;;;5103501;28;20430;-73
2021/08/03 05:11:06;;;;;;;8.77;7.03;;;14.30;99.90;;;;;;5091330;28;20447;-73
2021/08/03 05:13:34;;;;;;;9.00;8.10;;;14.30;99.90;;;;;;5092623;28;20441;-72
2021/08/03 05:16:01;;;;;;;8.97;8.17;;;14.30;99.90;;;;;;5092862;28;20874;-72
2021/08/03 05:18:29;;;;;;;8.90;7.33;;;14.30;99.90;;;;;;5097776;28;20446;-73
2021/08/03 05:20:56;;;;;;;9.30;8.40;;;14.40;99.90;;;;;;5109880;28;20802;-73
2021/08/03 05:23:23;;;;;;;9.73;7.73;;;14.40;99.90;;;;;;5108123;28;20968;-72
2021/08/03 05:25:50;;;;;;;11.50;8.70;;;14.40;99.90;;;;;;5111748;28;20449;-73
2021/08/03 05:28:17;;;;;;;9.53;8.73;;;14.40;99.90;;;;;;5108702;28;20444;-73
2021/08/03 05:30:46;;;;;;;8.63;7.83;;;14.40;99.90;;;;;;5093995;28;20431;-73
2021/08/03 05:33:13;;;;;;;9.23;8.30;;;14.50;99.90;;;;;;5098107;28;20571;-71
2021/08/03 05:35:42;;;;;;;9.03;7.37;;;14.50;99.90;;;;;;5106374;28;20481;-71
2021/08/03 05:38:09;;;;;;;10.17;8.70;;;14.50;99.90;;;;;;5090229;28;20445;-72
2021/08/03 05:40:36;;;;;;;9.80;8.80;;;14.50;99.90;;;;;;5091614;28;20441;-71
2021/08/03 05:43:03;;;;;;;9.50;8.60;;;14.60;99.90;;;;;;5090420;28;20477;-71
2021/08/03 05:45:30;;;;;;;10.43;9.30;;;14.60;99.90;;;;;;5090368;28;20439;-73
2021/08/03 05:47:57;;;;;;;10.97;9.27;;;14.60;99.90;;;;;;5108356;28;20808;-72
2021/08/03 05:50:24;;;;;;;10.60;9.30;;;14.60;99.90;;;;;;5113357;28;20465;-73
2021/08/03 05:52:52;;;;;;;8.77;7.97;;;14.60;99.90;;;;;;5113205;28;20466;-73
2021/08/03 05:55:19;;;;;;;18.87;8.97;;;14.60;99.90;;;;;;5113227;28;20483;-73
2021/08/03 05:57:46;;;;;;;9.70;8.67;;;14.60;99.90;;;;;;5109226;28;20927;-72
2021/08/03 06:00:14;;;;;;;9.03;8.23;;;14.70;99.90;;;;;;5108858;28;20946;-72
2021/08/03 06:02:41;;;;;;;13.17;8.73;;;14.70;99.90;;;;;;5111782;28;20474;-75
2021/08/03 06:05:09;;;;;;;11.40;9.80;;;14.80;99.90;;;;;;5111736;28;20438;-74
2021/08/03 06:07:41;;;;;;;9.37;8.40;;;14.80;99.90;;;;;;5112083;28;20471;-74
2021/08/03 06:10:12;;;;;;;10.93;9.13;;;14.80;99.90;;;;;;5112771;28;20485;-75
2021/08/03 06:12:40;;;;;;;12.67;9.40;;;14.90;99.90;;;;;;5109111;28;20453;-74
2021/08/03 06:15:07;;;;;;;10.13;8.93;;;14.90;99.90;;;;;;5089301;28;21024;-77
2021/08/03 06:17:39;;;;;;;11.93;8.97;;;14.90;99.90;;;;;;5111386;28;20960;-73
2021/08/03 06:20:08;;;;;;;9.03;8.13;;;15.00;99.90;;;;;;5111871;28;20446;-74
2021/08/03 06:22:36;;;;;;;11.70;8.00;;;15.00;99.90;;;;;;5093761;28;20458;-74
2021/08/03 06:25:03;;;;;;;9.13;8.23;;;15.00;99.90;;;;;;5094820;28;20454;-74
2021/08/03 06:27:32;;;;;;;9.03;7.97;;;15.00;99.90;;;;;;5114096;28;20454;-73
2021/08/03 06:30:02;;;;;;;13.23;9.33;;;15.10;99.90;;;;;;5113908;28;20438;-74
2021/08/03 06:32:30;;;;;;;10.60;9.50;;;15.10;99.90;;;;;;5114007;28;20486;-73
2021/08/03 06:34:58;;;;;;;10.13;9.20;;;15.10;99.90;;;;;;5108395;28;20478;-73
2021/08/03 06:37:25;;;;;;;10.27;9.27;;;15.10;99.90;;;;;;5070400;28;20551;-73
2021/08/03 06:39:52;;;;;;;11.83;9.90;;;15.10;99.90;;;;;;5091216;28;20435;-74
2021/08/03 06:42:27;;;;;;;9.47;8.53;;;15.10;99.90;;;;;;5090706;28;20459;-73
2021/08/03 06:45:02;;;;;;;9.83;8.50;;;15.10;99.90;;;;;;5091448;28;20443;-74
2021/08/03 06:47:39;;;;;;;11.80;9.73;;;15.10;99.90;;;;;;5107117;28;20796;-74
2021/08/03 06:50:09;;;;;;;11.30;10.20;;;15.10;99.90;;;;;;5113871;28;20456;-73
2021/08/03 06:52:37;;;;;;;12.50;10.40;;;15.10;99.90;;;;;;5113785;28;20463;-73
2021/08/03 06:55:07;;;;;;;11.27;10.10;;;15.10;99.90;;;;;;5113330;28;20490;-74
2021/08/03 06:57:36;;;;;;;11.33;10.37;;;15.10;99.90;;;;;;5107450;28;20435;-74
2021/08/03 07:00:08;;;;;;;9.30;8.40;;;15.10;99.90;;;;;;5109538;28;20439;-73
2021/08/03 07:02:37;;;;;;;11.57;10.40;;;15.20;99.90;;;;;;5111363;28;20473;-73
2021/08/03 07:05:10;;;;;;;13.30;10.17;;;15.20;99.90;;;;;;5106301;28;20447;-74
2021/08/03 07:07:37;;;;;;;11.03;9.90;;;15.20;99.90;;;;;;5092894;28;20436;-73
2021/08/03 07:10:08;;;;;;;12.40;10.40;;;15.30;99.90;;;;;;5104956;28;21324;-73
2021/08/03 07:12:35;;;;;;;11.40;10.30;;;15.30;99.90;;;;;;5072755;28;20432;-74
2021/08/03 07:15:04;;;;;;;12.23;11.00;;;15.30;99.90;;;;;;5110825;28;20466;-74
2021/08/03 07:17:32;;;;;;;11.30;10.17;;;15.30;99.90;;;;;;5111022;28;20435;-74
2021/08/03 07:20:01;;;;;;;11.60;10.47;;;15.30;99.90;;;;;;5111455;28;20798;-74
2021/08/03 07:22:31;;;;;;;12.20;10.30;;;15.30;99.90;;;;;;5111788;28;20493;-73
2021/08/03 07:24:58;;;;;;;11.37;10.27;;;15.30;99.90;;;;;;5095139;28;20837;-73
2021/08/03 07:27:25;;;;;;;13.40;10.83;;;15.40;99.90;;;;;;5095471;28;20434;-74
2021/08/03 07:29:52;;;;;;;11.03;9.97;;;15.40;99.90;;;;;;5115180;28;20438;-73
2021/08/03 07:32:20;;;;;;;10.93;9.83;;;15.40;99.90;;;;;;5110466;28;20480;-75
2021/08/03 07:34:47;;;;;;;10.90;9.53;;;15.40;99.90;;;;;;5104884;28;20427;-74
2021/08/03 07:37:14;;;;;;;11.60;10.00;;;15.40;99.90;;;;;;5114384;28;20530;-74
2021/08/03 07:39:42;;;;;;;11.70;9.73;;;15.40;99.90;;;;;;5114721;28;20434;-76
2021/08/03 07:42:10;;;;;;;10.43;9.10;;;15.50;99.90;;;;;;5114518;28;20462;-74
2021/08/03 07:44:37;;;;;;;11.50;10.40;;;15.50;99.90;;;;;;5115020;28;20465;-73
2021/08/03 07:47:04;;;;;;;14.03;10.10;;;15.50;99.90;;;;;;5117028;28;20417;-73
2021/08/03 07:49:33;;;;;;;10.50;9.50;;;15.50;99.90;;;;;;5098870;28;20813;-74
2021/08/03 07:52:00;;;;;;;10.03;8.80;;;15.50;99.90;;;;;;5096720;28;20960;-74
2021/08/03 07:54:27;;;;;;;10.23;9.23;;;15.60;99.90;;;;;;5110281;28;20445;-74
2021/08/03 07:56:53;;;;;;;9.60;8.70;;;15.60;99.90;;;;;;5112231;28;20573;-73
2021/08/03 07:59:20;;;;;;;9.30;8.30;;;15.60;99.90;;;;;;5114386;28;20405;-74
2021/08/03 08:01:47;;;;;;;10.00;8.70;;;15.70;99.90;;;;;;5114322;28;20480;-73
2021/08/03 08:04:14;;;;;;;12.83;9.33;;;15.80;99.90;;;;;;5114684;28;20441;-74
2021/08/03 08:06:42;;;;;;;10.13;9.13;;;15.90;99.90;;;;;;5115858;28;20949;-73
2021/08/03 08:09:09;;;;;;;9.37;8.50;;;15.90;99.90;;;;;;5116499;28;20405;-74
2021/08/03 08:11:36;;;;;;;9.70;8.70;;;16.00;99.90;;;;;;5116255;28;20821;-73
2021/08/03 08:14:04;;;;;;;10.67;9.57;;;16.10;99.90;;;;;;5116219;28;20417;-75
2021/08/03 08:16:31;;;;;;;8.90;8.00;;;16.10;99.90;;;;;;5110529;28;20555;-74
2021/08/03 08:18:58;;;;;;;9.03;8.23;;;16.10;99.90;;;;;;5110332;28;20419;-73
2021/08/03 08:21:25;;;;;;;9.20;8.13;;;16.20;99.90;;;;;;5096018;28;20928;-74
2021/08/03 08:23:53;;;;;;;9.00;8.10;;;16.20;99.90;;;;;;5113764;28;20439;-75
2021/08/03 08:26:20;;;;;;;8.63;7.10;;;16.20;99.90;;;;;;5114094;28;20430;-73
2021/08/03 08:28:47;;;;;;;8.90;8.10;;;16.20;99.90;;;;;;5115347;28;20454;-74
2021/08/03 08:31:16;;;;;;;9.97;7.40;;;16.30;99.90;;;;;;5115381;28;20410;-73
2021/08/03 08:33:43;;;;;;;8.40;7.60;;;16.30;99.90;;;;;;5116090;28;20528;-73
2021/08/03 08:36:09;;;;;;;8.90;6.83;;;16.30;99.90;;;;;;5110810;28;20475;-74
2021/08/03 08:38:36;;;;;;;11.30;7.23;;;16.30;99.90;;;;;;5106389;28;20430;-73
2021/08/03 08:41:05;;;;;;;8.37;7.53;;;16.30;99.90;;;;;;5109819;28;20464;-73
2021/08/03 08:43:32;;;;;;;8.63;7.77;;;16.30;99.90;;;;;;5113606;28;20469;-74
2021/08/03 08:45:59;;;;;;;8.70;7.43;;;16.30;99.90;;;;;;5112687;28;20764;-74
2021/08/03 08:48:27;;;;;;;6.90;6.30;;;16.30;99.90;;;;;;5113851;28;20423;-74
2021/08/03 08:50:55;;;;;;;9.47;6.70;;;16.30;99.90;;;;;;5114491;28;20966;-73
2021/08/03 08:53:25;;;;;;;8.30;7.57;;;16.30;99.90;;;;;;5111335;28;20514;-74
2021/08/03 08:55:52;;;;;;;7.37;6.67;;;16.30;99.90;;;;;;5077433;28;20490;-73
2021/08/03 08:58:20;;;;;;;9.17;7.80;;;16.30;99.90;;;;;;5095115;28;20435;-74
2021/08/03 09:00:47;;;;;;;8.97;7.63;;;16.30;99.90;;;;;;5105066;28;20431;-72
2021/08/03 09:03:14;;;;;;;7.80;7.00;;;16.30;99.90;;;;;;5110267;28;20446;-74
2021/08/03 09:05:41;;;;;;;7.17;6.47;;;16.30;99.90;;;;;;5112563;28;20462;-73
2021/08/03 09:08:10;;;;;;;7.87;7.17;;;16.30;99.90;;;;;;5094214;28;20801;-73
2021/08/03 09:10:40;;;;;;;8.03;6.43;;;16.30;99.90;;;;;;5113368;28;20443;-72
2021/08/03 09:13:10;;;;;;;9.00;7.20;;;16.40;99.90;;;;;;5078374;28;20479;-72
2021/08/03 09:15:39;;;;;;;7.53;6.80;;;16.30;99.90;;;;;;5097261;28;20482;-73
2021/08/03 09:18:12;;;;;;;7.57;6.87;;;16.30;99.90;;;;;;5089453;28;20442;-73
2021/08/03 09:20:39;;;;;;;9.17;7.63;;;16.30;99.90;;;;;;5077103;28;20450;-72
2021/08/03 09:23:06;;;;;;;7.43;6.70;;;16.30;99.90;;;;;;5104216;28;20959;-73
2021/08/03 09:25:34;;;;;;;9.00;7.30;;;16.20;99.90;;;;;;5110016;28;20431;-73
2021/08/03 09:28:03;;;;;;;12.20;7.50;;;16.10;99.90;;;;;;5112325;28;20435;-74
2021/08/03 09:30:32;;;;;;;11.50;8.43;;;16.10;99.90;;;;;;5085786;28;20443;-74
2021/08/03 09:33:01;;;;;;;9.07;8.17;;;16.10;99.90;;;;;;5090662;28;20523;-71
2021/08/03 09:35:29;;;;;;;9.10;8.20;;;16.10;99.90;;;;;;5109474;28;20872;-72
2021/08/03 09:37:57;;;;;;;8.10;7.30;;;16.00;99.90;;;;;;5071349;28;20402;-74
2021/08/03 09:40:26;;;;;;;8.80;7.50;;;16.00;99.90;;;;;;5105973;28;20486;-73
2021/08/03 09:43:02;;;;;;;8.70;7.80;;;16.10;99.90;;;;;;5108158;28;20481;-72
2021/08/03 09:45:31;;;;;;;7.70;7.00;;;16.00;99.90;;;;;;5108583;28;20859;-72
2021/08/03 09:48:15;;;;;;;7.43;6.60;;;16.10;99.90;;;;;;5074442;28;20935;-71
2021/08/03 09:50:58;;;;;;;7.73;7.03;;;16.10;99.90;;;;;;5094429;28;20465;-71
2021/08/03 09:53:43;;;;;;;9.13;8.03;;;16.00;99.90;;;;;;5094219;28;20464;-74
2021/08/03 09:56:12;;;;;;;10.13;6.97;;;16.00;99.90;;;;;;5077403;28;20444;-72
2021/08/03 09:58:56;;;;;;;7.63;6.83;;;16.00;99.90;;;;;;5110532;28;20428;-72
2021/08/03 10:01:25;;;;;;;7.87;6.80;;;16.00;99.90;;;;;;5102782;28;20426;-74
2021/08/03 10:03:55;;;;;;;8.43;7.63;;;16.00;99.90;;;;;;5106552;28;20424;-72
2021/08/03 10:06:22;;;;;;;11.30;7.63;;;16.10;99.90;;;;;;5108221;28;20437;-71
2021/08/03 10:08:50;;;;;;;7.40;6.60;;;16.10;99.90;;;;;;5108629;28;20428;-73
2021/08/03 10:11:18;;;;;;;6.47;5.80;;;16.10;99.90;;;;;;5074441;28;20935;-73
2021/08/03 10:13:46;;;;;;;12.60;7.60;;;16.20;99.90;;;;;;5091048;28;20531;-71
2021/08/03 10:16:15;;;;;;;11.70;7.60;;;16.20;99.90;;;;;;5092132;28;20508;-72
2021/08/03 10:18:47;;;;;;;7.73;7.03;;;16.20;99.90;;;;;;5092019;28;21010;-71
2021/08/03 10:21:28;;;;;;;7.20;6.50;;;16.20;99.90;;;;;;5109328;28;20446;-72
2021/08/03 10:23:57;;;;;;;8.93;7.10;;;16.20;99.90;;;;;;5085654;28;20435;-72
2021/08/03 10:26:25;;;;;;;8.80;8.00;;;16.30;99.90;;;;;;5087059;28;20425;-72
2021/08/03 10:29:21;;;;;;;8.63;7.73;;;16.30;99.90;;;;;;5099214;28;20827;-72
2021/08/03 10:31:48;;;;;;;7.77;6.93;;;16.40;99.90;;;;;;5106866;28;20429;-72
2021/08/03 10:34:45;;;;;;;8.33;7.63;;;16.50;99.90;;;;;;5092633;28;20446;-73
2021/08/03 10:37:14;;;;;;;8.40;7.47;;;16.50;99.90;;;;;;5093543;28;20886;-73
2021/08/03 10:39:57;;;;;;;8.43;7.63;;;16.50;99.90;;;;;;5108382;28;20426;-72
2021/08/03 10:42:25;;;;;;;8.10;7.30;;;16.50;99.90;;;;;;5095443;28;21013;-71
2021/08/03 10:44:57;;;;;;;9.47;8.57;;;16.50;99.90;;;;;;5091079;28;20405;-72
2021/08/03 10:47:42;;;;;;;8.77;7.93;;;16.60;99.90;;;;;;5111659;28;20537;-71
2021/08/03 10:50:11;;;;;;;7.80;6.97;;;16.60;99.90;;;;;;5109573;28;20436;-72
2021/08/03 10:52:55;;;;;;;8.97;7.90;;;16.60;99.90;;;;;;5096095;28;20438;-72
2021/08/03 10:55:32;;;;;;;8.90;8.00;;;16.70;99.90;;;;;;5097643;28;20421;-73
2021/08/03 10:58:22;;;;;;;10.93;9.70;;;16.80;99.90;;;;;;5094625;28;20494;-72
2021/08/03 11:00:50;;;;;;;9.30;8.30;;;16.80;99.90;;;;;;5088709;28;20419;-72
2021/08/03 11:03:46;;;;;;;9.33;7.90;;;16.90;99.90;;;;;;5070686;28;20799;-72
2021/08/03 11:06:31;;;;;;;8.63;7.73;;;17.00;99.90;;;;;;5085234;28;20435;-72
2021/08/03 11:09:00;;;;;;;8.53;7.63;;;17.10;99.90;;;;;;5082768;28;20785;-72
2021/08/03 11:11:28;;;;;;;7.83;7.03;;;17.20;99.90;;;;;;5116109;28;20882;-72
2021/08/03 11:13:56;;;;;;;8.37;7.47;;;17.30;99.90;;;;;;5099551;28;20410;-72
2021/08/03 11:16:44;;;;;;;7.63;6.97;;;17.30;99.90;;;;;;5099608;28;20456;-72
2021/08/03 11:19:29;;;;;;;7.10;6.40;;;17.50;99.90;;;;;;5117306;28;20413;-73
2021/08/03 11:21:56;;;;;;;7.60;6.90;;;17.50;99.90;;;;;;5112031;28;20465;-73
2021/08/03 11:24:35;;;;;;;7.00;6.17;;;17.60;99.90;;;;;;5111022;28;20613;-73
2021/08/03 11:27:03;;;;;;;6.63;6.00;;;17.70;99.90;;;;;;5113846;28;20483;-72
2021/08/03 11:29:35;;;;;;;7.83;6.50;;;17.80;99.90;;;;;;5113503;28;20458;-72
2021/08/03 11:32:03;;;;;;;6.63;5.90;;;18.00;99.90;;;;;;5095394;28;20449;-71
2021/08/03 11:34:32;;;;;;;6.67;6.10;;;18.10;99.90;;;;;;5115413;28;21033;-72
2021/08/03 11:37:03;;;;;;;5.60;4.93;;;18.30;99.90;;;;;;5097625;28;20478;-72
2021/08/03 11:39:33;;;;;;;7.40;5.57;;;18.30;99.90;;;;;;5116205;28;20448;-73
2021/08/03 11:42:00;;;;;;;5.60;5.10;;;18.40;99.90;;;;;;5116125;28;20473;-72
2021/08/03 11:44:28;;;;;;;5.70;5.20;;;18.40;99.90;;;;;;5111737;28;20434;-73
2021/08/03 11:46:58;;;;;;;5.40;5.00;;;18.50;99.90;;;;;;5093003;28;20438;-73
2021/08/03 11:49:30;;;;;;;5.30;4.80;;;18.50;99.90;;;;;;5080040;28;20453;-74
2021/08/03 11:52:08;;;;;;;5.10;4.30;;;18.60;99.90;;;;;;5101788;28;20461;-75
2021/08/03 11:54:36;;;;;;;4.23;3.83;;;18.60;99.90;;;;;;5096120;28;20441;-75
2021/08/03 11:57:18;;;;;;;9.20;5.27;;;18.70;99.90;;;;;;5115707;28;20492;-75
2021/08/03 11:59:45;;;;;;;4.70;4.30;;;18.70;99.90;;;;;;5101014;28;20438;-74
2021/08/03 12:02:12;;;;;;;5.63;5.13;;;18.80;99.90;;;;;;5116116;28;20458;-75
2021/08/03 12:04:39;;;;;;;4.47;4.07;;;18.90;99.90;;;;;;5115398;28;20462;-76
2021/08/03 12:07:06;;;;;;;5.83;4.93;;;19.00;99.90;;;;;;5108800;28;20576;-74
2021/08/03 12:09:33;;;;;;;5.30;4.00;;;19.10;99.90;;;;;;5109535;28;20413;-76
2021/08/03 12:12:01;;;;;;;4.00;3.60;;;19.20;99.90;;;;;;5113014;28;20469;-76
2021/08/03 12:14:34;;;;;;;4.67;4.27;;;19.30;99.90;;;;;;5082098;28;20454;-75
2021/08/03 12:17:01;;;;;;;4.10;3.80;;;19.40;99.90;;;;;;5087955;28;20463;-74
2021/08/03 12:19:28;;;;;;;4.80;4.00;;;19.50;99.90;;;;;;5114295;28;20443;-73
2021/08/03 12:21:56;;;;;;;4.30;3.90;;;19.60;99.90;;;;;;5109377;28;20459;-74
2021/08/03 12:24:24;;;;;;;4.00;3.70;;;19.60;99.90;;;;;;5108843;28;20462;-74
2021/08/03 12:27:10;;;;;;;3.30;3.10;;;19.70;99.90;;;;;;5113542;28;20438;-74
2021/08/03 12:29:37;;;;;;;3.77;3.50;;;19.70;99.90;;;;;;5094458;28;20431;-74
2021/08/03 12:32:04;;;;;;;3.10;2.83;;;19.80;99.90;;;;;;5111628;28;20446;-74
2021/08/03 12:34:36;;;;;;;2.90;2.70;;;19.80;99.90;;;;;;5113759;28;20446;-74
2021/08/03 12:37:05;;;;;;;4.13;3.50;;;19.80;99.90;;;;;;5113269;28;20486;-73
2021/08/03 12:39:40;;;;;;;3.30;3.00;;;19.90;99.90;;;;;;5079194;28;20442;-73
2021/08/03 12:42:20;;;;;;;3.90;3.30;;;19.90;99.90;;;;;;5094351;28;20460;-74
2021/08/03 12:44:48;;;;;;;3.60;3.27;;;19.90;99.90;;;;;;5091658;28;20430;-73
2021/08/03 12:47:17;;;;;;;4.50;3.27;;;20.00;99.90;;;;;;5112348;28;20814;-74
2021/08/03 12:49:46;;;;;;;3.40;3.10;;;20.00;99.90;;;;;;5095374;28;20435;-74
2021/08/03 12:52:16;;;;;;;3.30;3.00;;;20.10;99.90;;;;;;5094542;28;20545;-74
2021/08/03 12:54:55;;;;;;;3.10;2.90;;;20.10;99.90;;;;;;5095784;28;20438;-74
2021/08/03 12:57:24;;;;;;;3.67;3.37;;;20.10;99.90;;;;;;5099162;28;20574;-73